createdAt,value
2022-09-05T00:00:18.927Z,19.8
2022-09-05T00:01:17.987Z,19.7
2022-09-05T00:02:19.688Z,19.7
2022-09-05T00:03:19.188Z,19.7
2022-09-05T00:04:24.875Z,19.7
2022-09-05T00:05:18.900Z,19.7
2022-09-05T00:06:18.544Z,19.7
2022-09-05T00:07:31.290Z,19.7
2022-09-05T00:08:19.433Z,19.7
2022-09-05T00:09:18.444Z,19.7
2022-09-05T00:10:18.538Z,19.8
2022-09-05T00:11:40.099Z,19.8
2022-09-05T00:12:18.640Z,19.8
2022-09-05T00:13:18.749Z,19.7
2022-09-05T00:14:34.129Z,19.7
2022-09-05T00:15:19.230Z,19.8
2022-09-05T00:16:19.000Z,19.8
2022-09-05T00:17:19.020Z,19.9
2022-09-05T00:19:12.062Z,19.9
2022-09-05T00:22:05.041Z,19.9
2022-09-05T00:23:15.489Z,19.9
2022-09-05T00:24:23.991Z,19.9
2022-09-05T00:24:24.587Z,20
2022-09-05T00:24:33.370Z,19.9
2022-09-05T00:25:32.737Z,19.9
2022-09-05T00:26:19.670Z,19.9
2022-09-05T00:27:19.762Z,19.8
2022-09-05T00:28:25.544Z,19.9
2022-09-05T00:29:28.878Z,19.9
2022-09-05T00:30:57.391Z,19.9
2022-09-05T00:31:52.216Z,19.9
2022-09-05T00:32:21.675Z,19.9
2022-09-05T00:33:20.123Z,19.9
2022-09-05T00:34:20.395Z,19.9
2022-09-05T00:35:20.476Z,19.9
2022-09-05T00:36:20.937Z,20
2022-09-05T00:37:20.331Z,19.9
2022-09-05T00:38:20.684Z,19.9
2022-09-05T00:39:20.804Z,19.9
2022-09-05T00:40:20.522Z,19.9
2022-09-05T00:41:22.751Z,19.9
2022-09-05T00:42:20.625Z,19.9
2022-09-05T00:43:21.869Z,19.9
2022-09-05T00:44:20.815Z,19.9
2022-09-05T00:45:20.934Z,19.8
2022-09-05T00:46:24.306Z,19.8
2022-09-05T00:47:21.088Z,19.9
2022-09-05T00:48:21.142Z,19.8
2022-09-05T00:49:22.567Z,19.9
2022-09-05T00:50:21.153Z,20
2022-09-05T00:51:21.295Z,20
2022-09-05T00:52:23.308Z,20
2022-09-05T00:53:23.200Z,19.8
2022-09-05T00:54:24.807Z,19.7
2022-09-05T00:55:22.851Z,19.7
2022-09-05T00:56:21.615Z,19.6
2022-09-05T00:57:21.673Z,19.8
2022-09-05T00:58:21.774Z,19.9
2022-09-05T00:59:21.855Z,19.8
2022-09-05T01:00:21.972Z,19.8
2022-09-05T01:01:22.151Z,19.8
2022-09-05T01:02:23.240Z,19.7
2022-09-05T01:03:22.082Z,19.7
2022-09-05T01:04:23.667Z,19.6
2022-09-05T01:05:24.104Z,19.5
2022-09-05T01:06:22.422Z,19.6
2022-09-05T01:07:24.318Z,19.6
2022-09-05T01:08:22.424Z,19.7
2022-09-05T01:09:22.840Z,19.7
2022-09-05T01:10:23.465Z,19.6
2022-09-05T01:11:22.578Z,19.5
2022-09-05T01:12:23.259Z,19.5
2022-09-05T01:13:22.745Z,19.7
2022-09-05T01:14:22.972Z,19.6
2022-09-05T01:15:24.849Z,19.6
2022-09-05T01:16:22.979Z,19.6
2022-09-05T01:17:22.991Z,19.5
2022-09-05T01:18:23.070Z,19.4
2022-09-05T01:19:23.157Z,19.4
2022-09-05T01:20:23.265Z,19.4
2022-09-05T01:21:24.822Z,19.5
2022-09-05T01:22:23.358Z,19.5
2022-09-05T01:23:23.834Z,19.5
2022-09-05T01:24:27.845Z,19.4
2022-09-05T01:25:24.152Z,19.4
2022-09-05T01:26:23.707Z,19.4
2022-09-05T01:27:23.929Z,19.3
2022-09-05T01:29:14.681Z,19.3
2022-09-05T01:29:23.951Z,19.3
2022-09-05T01:30:23.992Z,19.3
2022-09-05T01:31:24.037Z,19.4
2022-09-05T01:32:24.334Z,19.4
2022-09-05T01:33:24.317Z,19.3
2022-09-05T01:34:29.658Z,19.2
2022-09-05T01:35:25.918Z,19.3
2022-09-05T01:36:26.945Z,19.4
2022-09-05T01:37:33.236Z,19.4
2022-09-05T01:38:24.466Z,19.3
2022-09-05T01:40:12.825Z,19.2
2022-09-05T01:40:24.645Z,19.1
2022-09-05T01:41:25.341Z,19.2
2022-09-05T01:42:24.762Z,19.2
2022-09-05T01:43:26.591Z,19.3
2022-09-05T01:44:24.838Z,19.3
2022-09-05T01:45:26.692Z,19.3
2022-09-05T01:46:25.917Z,19.3
2022-09-05T01:47:29.510Z,19.3
2022-09-05T01:48:25.524Z,19.4
2022-09-05T01:49:27.229Z,19.2
2022-09-05T01:50:27.248Z,19.3
2022-09-05T01:51:28.564Z,19.3
2022-09-05T01:52:26.835Z,19.2
2022-09-05T01:53:25.956Z,19.2
2022-09-05T01:54:28.777Z,19.1
2022-09-05T01:55:25.734Z,19.1
2022-09-05T01:56:26.863Z,19.1
2022-09-05T01:57:25.641Z,19.2
2022-09-05T01:58:26.954Z,19.3
2022-09-05T01:59:25.717Z,19.2
2022-09-05T02:00:27.801Z,19.3
2022-09-05T02:01:32.758Z,19.2
2022-09-05T02:02:26.961Z,19.2
2022-09-05T02:03:26.098Z,19.2
2022-09-05T02:04:26.005Z,19.2
2022-09-05T02:05:47.224Z,19.2
2022-09-05T02:06:26.483Z,19.3
2022-09-05T02:07:30.674Z,19.2
2022-09-05T02:08:27.055Z,19.2
2022-09-05T02:09:26.797Z,19.2
2022-09-05T02:10:26.210Z,19.2
2022-09-05T02:11:34.961Z,19.1
2022-09-05T02:12:28.745Z,19.1
2022-09-05T02:13:27.873Z,19.1
2022-09-05T02:14:33.606Z,19.1
2022-09-05T02:15:26.547Z,19.2
2022-09-05T02:16:26.583Z,19.3
2022-09-05T02:17:48.000Z,19.3
2022-09-05T02:18:26.717Z,19.3
2022-09-05T02:19:27.399Z,19.2
2022-09-05T02:20:29.330Z,19.1
2022-09-05T02:21:26.960Z,19.1
2022-09-05T02:22:27.297Z,19.1
2022-09-05T02:23:41.441Z,19.1
2022-09-05T02:24:29.781Z,19.1
2022-09-05T02:25:33.518Z,19.1
2022-09-05T02:26:29.180Z,19.1
2022-09-05T02:27:31.711Z,19.2
2022-09-05T02:28:27.772Z,19
2022-09-05T02:29:28.779Z,19
2022-09-05T02:30:27.501Z,18.9
2022-09-05T02:31:27.658Z,19
2022-09-05T02:32:27.644Z,19
2022-09-05T02:33:27.704Z,19
2022-09-05T02:34:27.801Z,19
2022-09-05T02:35:29.776Z,19
2022-09-05T02:36:27.952Z,19
2022-09-05T02:37:33.809Z,19
2022-09-05T02:39:07.601Z,18.9
2022-09-05T02:42:52.818Z,19
2022-09-05T02:44:49.547Z,19
2022-09-05T02:45:04.524Z,19
2022-09-05T02:45:04.764Z,19
2022-09-05T02:45:05.665Z,19
2022-09-05T02:45:05.680Z,19
2022-09-05T02:45:28.848Z,19
2022-09-05T02:46:29.735Z,18.9
2022-09-05T02:47:28.637Z,18.8
2022-09-05T02:48:29.923Z,18.8
2022-09-05T02:50:19.225Z,18.8
2022-09-05T02:52:19.883Z,18.8
2022-09-05T02:54:54.187Z,18.8
2022-09-05T02:55:56.143Z,18.8
2022-09-05T02:57:31.407Z,18.6
2022-09-05T02:57:31.856Z,18.6
2022-09-05T02:57:32.009Z,18.7
2022-09-05T02:57:32.135Z,18.7
2022-09-05T02:57:47.508Z,18.6
2022-09-05T02:58:42.992Z,18.5
2022-09-05T02:59:36.533Z,18.4
2022-09-05T03:00:29.430Z,18.4
2022-09-05T03:01:31.498Z,18.4
2022-09-05T03:02:29.955Z,18.4
2022-09-05T03:03:29.662Z,18.5
2022-09-05T03:04:29.709Z,18.4
2022-09-05T03:05:29.942Z,18.4
2022-09-05T03:06:34.256Z,18.5
2022-09-05T03:07:29.910Z,18.4
2022-09-05T03:08:29.988Z,18.4
2022-09-05T03:09:30.723Z,18.4
2022-09-05T03:10:39.662Z,18.4
2022-09-05T03:11:30.367Z,18.4
2022-09-05T03:12:30.232Z,18.4
2022-09-05T03:13:30.620Z,18.4
2022-09-05T03:14:30.373Z,18.4
2022-09-05T03:15:31.514Z,18.4
2022-09-05T03:16:30.624Z,18.3
2022-09-05T03:17:30.588Z,18.3
2022-09-05T03:18:32.255Z,18.3
2022-09-05T03:19:30.720Z,18.2
2022-09-05T03:20:30.793Z,18.1
2022-09-05T03:21:31.073Z,18
2022-09-05T03:22:34.880Z,18.2
2022-09-05T03:23:33.101Z,18.2
2022-09-05T03:24:31.681Z,18.2
2022-09-05T03:25:32.923Z,18.2
2022-09-05T03:26:31.798Z,18.1
2022-09-05T03:27:32.953Z,18.2
2022-09-05T03:28:31.540Z,18.2
2022-09-05T03:29:34.365Z,18.3
2022-09-05T03:30:32.568Z,18.2
2022-09-05T03:31:31.751Z,18.2
2022-09-05T03:32:33.055Z,18.2
2022-09-05T03:33:31.909Z,18.4
2022-09-05T03:34:31.774Z,18.3
2022-09-05T03:35:33.660Z,18.3
2022-09-05T03:36:31.920Z,18.3
2022-09-05T03:37:33.198Z,18.4
2022-09-05T03:38:34.212Z,18.5
2022-09-05T03:39:32.686Z,18.4
2022-09-05T03:40:33.677Z,18.4
2022-09-05T03:41:33.958Z,18.4
2022-09-05T03:42:32.567Z,18.3
2022-09-05T03:43:34.890Z,18.3
2022-09-05T03:44:32.473Z,18.4
2022-09-05T03:45:36.813Z,18.4
2022-09-05T03:46:34.862Z,18.3
2022-09-05T03:47:32.664Z,18.3
2022-09-05T03:48:32.705Z,18.2
2022-09-05T03:50:25.905Z,18.2
2022-09-05T03:52:24.729Z,18.2
2022-09-05T03:55:45.468Z,18.2
2022-09-05T03:56:27.647Z,18.1
2022-09-05T03:57:09.011Z,18.2
2022-09-05T03:57:09.240Z,18.2
2022-09-05T03:57:09.655Z,18.3
2022-09-05T03:57:21.844Z,18.3
2022-09-05T03:57:41.305Z,18.3
2022-09-05T03:58:55.751Z,18.3
2022-09-05T03:59:34.653Z,18.3
2022-09-05T04:00:33.875Z,18.3
2022-09-05T04:02:38.804Z,18.3
2022-09-05T04:03:58.948Z,18.3
2022-09-05T04:05:05.988Z,18.3
2022-09-05T04:07:38.805Z,18.3
2022-09-05T04:08:12.839Z,18.4
2022-09-05T04:08:13.206Z,18.3
2022-09-05T04:08:19.994Z,18.2
2022-09-05T04:08:42.208Z,18.1
2022-09-05T04:10:24.259Z,18.1
2022-09-05T04:10:36.220Z,18.2
2022-09-05T04:11:34.146Z,18.2
2022-09-05T04:12:36.950Z,18.2
2022-09-05T04:13:34.270Z,18.2
2022-09-05T04:14:34.438Z,18.3
2022-09-05T04:15:34.553Z,18.3
2022-09-05T04:16:38.487Z,18.3
2022-09-05T04:17:34.625Z,18.3
2022-09-05T04:18:35.199Z,18.3
2022-09-05T04:19:34.943Z,18.2
2022-09-05T04:20:38.475Z,18.2
2022-09-05T04:21:34.985Z,18.2
2022-09-05T04:22:35.022Z,18.1
2022-09-05T04:23:36.917Z,18.1
2022-09-05T04:24:35.072Z,18.2
2022-09-05T04:25:36.952Z,18.1
2022-09-05T04:26:38.342Z,18.1
2022-09-05T04:27:35.621Z,18.2
2022-09-05T04:28:36.865Z,18.2
2022-09-05T04:29:38.107Z,18.2
2022-09-05T04:32:17.764Z,18.2
2022-09-05T04:32:32.558Z,18.2
2022-09-05T04:32:35.743Z,18.2
2022-09-05T04:33:36.782Z,18.2
2022-09-05T04:34:35.778Z,18.2
2022-09-05T04:35:38.819Z,18.1
2022-09-05T04:36:35.826Z,18.1
2022-09-05T04:37:48.287Z,17.9
2022-09-05T04:38:36.574Z,18
2022-09-05T04:39:38.186Z,18
2022-09-05T04:40:36.042Z,17.9
2022-09-05T04:41:36.588Z,18
2022-09-05T04:42:36.194Z,18
2022-09-05T04:43:36.626Z,18
2022-09-05T04:44:36.493Z,18.1
2022-09-05T04:45:38.372Z,18
2022-09-05T04:46:47.449Z,18.1
2022-09-05T04:47:36.525Z,18
2022-09-05T04:48:36.689Z,17.9
2022-09-05T04:49:36.664Z,17.9
2022-09-05T04:50:38.213Z,18
2022-09-05T04:51:37.180Z,17.9
2022-09-05T04:52:37.120Z,17.9
2022-09-05T04:53:40.397Z,17.9
2022-09-05T04:54:37.015Z,18
2022-09-05T04:55:37.099Z,18.1
2022-09-05T04:56:37.514Z,18
2022-09-05T04:57:39.220Z,18
2022-09-05T04:58:56.172Z,18
2022-09-05T05:01:36.576Z,17.9
2022-09-05T05:02:15.099Z,17.9
2022-09-05T05:04:53.533Z,18
2022-09-05T05:06:06.244Z,18
2022-09-05T05:06:06.732Z,17.9
2022-09-05T05:06:06.767Z,18
2022-09-05T05:06:06.981Z,18
2022-09-05T05:06:45.839Z,17.8
2022-09-05T05:07:39.815Z,17.7
2022-09-05T05:08:39.586Z,17.8
2022-09-05T05:09:39.342Z,17.8
2022-09-05T05:13:02.101Z,17.7
2022-09-05T05:14:38.069Z,17.7
2022-09-05T05:16:13.521Z,17.8
2022-09-05T05:16:54.369Z,17.8
2022-09-05T05:18:04.789Z,17.9
2022-09-05T05:18:04.891Z,17.8
2022-09-05T05:18:04.897Z,17.8
2022-09-05T05:18:05.835Z,17.8
2022-09-05T05:18:49.376Z,18
2022-09-05T05:19:38.695Z,18.1
2022-09-05T05:20:43.611Z,18.1
2022-09-05T05:21:38.768Z,18
2022-09-05T05:22:39.880Z,17.9
2022-09-05T05:23:38.821Z,17.9
2022-09-05T05:24:38.990Z,18
2022-09-05T05:25:39.293Z,17.8
2022-09-05T05:26:40.894Z,17.7
2022-09-05T05:27:38.993Z,17.8
2022-09-05T05:28:39.021Z,17.8
2022-09-05T05:29:39.139Z,17.6
2022-09-05T05:30:50.282Z,17.7
2022-09-05T05:34:34.071Z,17.9
2022-09-05T05:34:40.798Z,17.9
2022-09-05T05:36:14.856Z,17.9
2022-09-05T05:36:39.766Z,17.9
2022-09-05T05:37:39.744Z,17.7
2022-09-05T05:38:39.807Z,17.8
2022-09-05T05:39:41.887Z,17.8
2022-09-05T05:40:48.346Z,17.8
2022-09-05T05:41:39.903Z,17.7
2022-09-05T05:42:39.874Z,17.9
2022-09-05T05:43:42.897Z,17.9
2022-09-05T05:44:40.054Z,17.8
2022-09-05T05:45:41.965Z,17.9
2022-09-05T05:46:40.462Z,18
2022-09-05T05:47:40.419Z,18
2022-09-05T05:48:42.244Z,17.9
2022-09-05T05:49:42.186Z,17.8
2022-09-05T05:50:40.433Z,18
2022-09-05T05:52:01.059Z,17.9
2022-09-05T05:52:40.628Z,17.9
2022-09-05T05:53:43.280Z,17.9
2022-09-05T05:54:40.774Z,18
2022-09-05T05:55:52.601Z,18.1
2022-09-05T05:56:40.817Z,18.2
2022-09-05T05:57:40.880Z,18.3
2022-09-05T05:58:40.950Z,18.2
2022-09-05T05:59:41.269Z,18
2022-09-05T06:00:41.092Z,18.1
2022-09-05T06:01:41.598Z,18.1
2022-09-05T06:02:41.311Z,18.1
2022-09-05T06:03:41.376Z,18.3
2022-09-05T06:04:44.891Z,18.4
2022-09-05T06:05:41.625Z,18.4
2022-09-05T06:06:42.932Z,18.4
2022-09-05T06:07:45.210Z,18.3
2022-09-05T06:09:57.518Z,18.2
2022-09-05T06:13:53.007Z,18.3
2022-09-05T06:14:42.844Z,18.5
2022-09-05T06:14:42.845Z,18.5
2022-09-05T06:14:53.793Z,18.5
2022-09-05T06:14:53.908Z,18.5
2022-09-05T06:15:03.260Z,18.5
2022-09-05T06:15:43.924Z,18.6
2022-09-05T06:16:42.254Z,18.6
2022-09-05T06:17:42.461Z,18.7
2022-09-05T06:18:42.569Z,18.7
2022-09-05T06:19:51.850Z,18.8
2022-09-05T06:21:34.594Z,18.8
2022-09-05T06:22:08.056Z,18.8
2022-09-05T06:22:44.376Z,18.9
2022-09-05T06:23:44.457Z,18.9
2022-09-05T06:24:42.712Z,19
2022-09-05T06:25:42.943Z,19
2022-09-05T06:26:44.743Z,19.1
2022-09-05T06:27:58.014Z,19.2
2022-09-05T06:28:42.975Z,19.1
2022-09-05T06:29:47.143Z,19.2
2022-09-05T06:30:44.522Z,19.2
2022-09-05T06:31:43.209Z,19.2
2022-09-05T06:32:44.726Z,19.3
2022-09-05T06:33:44.888Z,19.3
2022-09-05T06:34:43.601Z,19.3
2022-09-05T06:35:43.410Z,19.4
2022-09-05T06:36:46.080Z,19.5
2022-09-05T06:37:43.550Z,19.5
2022-09-05T06:38:43.569Z,19.6
2022-09-05T06:39:45.197Z,19.5
2022-09-05T06:40:45.783Z,19.5
2022-09-05T06:41:43.785Z,19.6
2022-09-05T06:42:44.945Z,19.6
2022-09-05T06:43:43.893Z,19.6
2022-09-05T06:44:43.962Z,19.6
2022-09-05T06:45:44.048Z,19.7
2022-09-05T06:46:51.497Z,19.7
2022-09-05T06:47:45.390Z,19.7
2022-09-05T06:48:46.541Z,19.7
2022-09-05T06:49:46.125Z,19.8
2022-09-05T06:51:07.644Z,19.8
2022-09-05T06:51:45.128Z,19.9
2022-09-05T06:52:44.809Z,20.1
2022-09-05T06:53:44.983Z,20
2022-09-05T06:54:47.349Z,20.1
2022-09-05T06:55:46.098Z,20.1
2022-09-05T06:56:44.754Z,20.1
2022-09-05T06:57:46.369Z,20.2
2022-09-05T06:58:44.901Z,20.2
2022-09-05T06:59:44.994Z,20.3
2022-09-05T07:00:45.864Z,20.3
2022-09-05T07:02:00.105Z,20.4
2022-09-05T07:02:48.446Z,20.4
2022-09-05T07:03:45.257Z,20.5
2022-09-05T07:05:24.366Z,20.6
2022-09-05T07:05:46.563Z,20.7
2022-09-05T07:07:00.915Z,20.7
2022-09-05T07:07:46.258Z,20.7
2022-09-05T07:08:45.619Z,20.8
2022-09-05T07:09:45.818Z,20.8
2022-09-05T07:10:47.261Z,20.8
2022-09-05T07:11:45.813Z,21
2022-09-05T07:12:45.888Z,21.1
2022-09-05T07:13:45.920Z,21.1
2022-09-05T07:14:45.955Z,21.1
2022-09-05T07:15:46.067Z,21.1
2022-09-05T07:16:46.302Z,21.1
2022-09-05T07:18:08.844Z,21.1
2022-09-05T07:18:46.292Z,21.2
2022-09-05T07:19:46.316Z,21.3
2022-09-05T07:21:16.135Z,21.5
2022-09-05T07:21:55.220Z,21.7
2022-09-05T07:22:49.367Z,21.6
2022-09-05T07:23:56.548Z,21.7
2022-09-05T07:24:53.880Z,21.7
2022-09-05T07:25:46.802Z,21.7
2022-09-05T07:26:52.433Z,21.7
2022-09-05T07:28:25.643Z,21.8
2022-09-05T07:28:47.055Z,22
2022-09-05T07:29:52.541Z,22.1
2022-09-05T07:30:47.133Z,22.1
2022-09-05T07:31:47.183Z,22.1
2022-09-05T07:32:47.441Z,22
2022-09-05T07:33:47.510Z,22
2022-09-05T07:34:47.801Z,22.1
2022-09-05T07:35:47.470Z,22.1
2022-09-05T07:36:48.231Z,22.1
2022-09-05T07:37:47.566Z,21.9
2022-09-05T07:38:52.642Z,22
2022-09-05T07:39:47.823Z,22.2
2022-09-05T07:40:47.887Z,22.3
2022-09-05T07:41:47.895Z,22.4
2022-09-05T07:57:20.617Z,22.3
2022-09-05T07:57:51.537Z,22.3
2022-09-05T07:58:54.129Z,22.6
2022-09-05T07:59:49.649Z,22.8
2022-09-05T08:00:54.509Z,22.8
2022-09-05T08:01:54.302Z,22.7
2022-09-05T08:02:54.144Z,22.8
2022-09-05T08:03:49.502Z,22.9
2022-09-05T08:04:54.410Z,23.1
2022-09-05T08:05:49.605Z,23.2
2022-09-05T08:07:25.708Z,23.1
2022-09-05T08:07:51.943Z,23.3
2022-09-05T08:09:05.768Z,23.3
2022-09-05T08:10:05.732Z,23.1
2022-09-05T08:11:21.118Z,23.3
2022-09-05T08:11:50.047Z,23.2
2022-09-05T08:13:23.237Z,23.2
2022-09-05T08:13:50.082Z,23.3
2022-09-05T08:14:50.106Z,23.5
2022-09-05T08:16:02.967Z,23.5
2022-09-05T08:16:50.308Z,23.5
2022-09-05T08:17:50.427Z,23.8
2022-09-05T08:18:52.142Z,23.8
2022-09-05T08:19:50.527Z,23.8
2022-09-05T08:20:55.866Z,23.9
2022-09-05T08:21:50.979Z,23.9
2022-09-05T08:22:52.439Z,23.9
2022-09-05T08:23:51.970Z,23.9
2022-09-05T08:24:51.185Z,23.9
2022-09-05T08:25:56.651Z,23.9
2022-09-05T08:26:51.049Z,23.9
2022-09-05T08:27:56.076Z,23.8
2022-09-05T08:28:52.246Z,23.9
2022-09-05T08:29:55.953Z,23.9
2022-09-05T08:30:51.291Z,23.9
2022-09-05T08:31:51.367Z,23.9
2022-09-05T08:32:51.415Z,24.1
2022-09-05T08:33:51.480Z,24.2
2022-09-05T08:34:51.524Z,24.2
2022-09-05T08:35:51.689Z,24.1
2022-09-05T08:37:08.436Z,24.4
2022-09-05T08:39:38.468Z,24.5
2022-09-05T08:41:23.699Z,24.7
2022-09-05T08:42:15.095Z,24.6
2022-09-05T08:43:51.824Z,24.7
2022-09-05T08:46:38.928Z,24.8
2022-09-05T08:46:39.095Z,24.8
2022-09-05T08:46:45.237Z,24.8
2022-09-05T08:47:15.391Z,24.8
2022-09-05T08:48:15.521Z,24.8
2022-09-05T08:49:18.064Z,25.2
2022-09-05T08:50:15.656Z,25.2
2022-09-05T08:51:15.682Z,25.2
2022-09-05T08:52:17.131Z,25.1
2022-09-05T08:53:18.592Z,25.1
2022-09-05T08:54:15.894Z,25.1
2022-09-05T08:55:15.922Z,25.3
2022-09-05T08:56:16.967Z,25.3
2022-09-05T08:57:16.627Z,25.3
2022-09-05T08:58:16.078Z,25.2
2022-09-05T08:59:27.362Z,25.1
2022-09-05T09:00:18.797Z,25.3
2022-09-05T09:01:16.274Z,25.3
2022-09-05T09:02:45.736Z,25.5
2022-09-05T09:03:16.454Z,25.6
2022-09-05T09:04:17.452Z,25.8
2022-09-05T09:05:16.510Z,26.7
2022-09-05T09:06:16.548Z,26.4
2022-09-05T09:07:47.837Z,26.3
2022-09-05T09:08:17.023Z,26.3
2022-09-05T09:09:16.779Z,26.6
2022-09-05T09:10:22.524Z,26.5
2022-09-05T09:11:29.493Z,26.5
2022-09-05T09:12:44.749Z,26.4
2022-09-05T09:13:59.959Z,26.2
2022-09-05T09:15:14.504Z,26
2022-09-05T09:16:30.278Z,26.1
2022-09-05T09:17:57.108Z,26.3
2022-09-05T09:18:59.762Z,26.3
2022-09-05T09:20:00.038Z,26.5
2022-09-05T09:21:04.104Z,26.4
2022-09-05T09:22:08.556Z,26.5
2022-09-05T09:22:59.735Z,26.6
2022-09-05T09:24:03.020Z,26.6
2022-09-05T09:25:12.081Z,26.5
2022-09-05T09:26:04.919Z,26.6
2022-09-05T09:27:08.106Z,26.6
2022-09-05T09:28:47.070Z,26.6
2022-09-05T09:29:00.988Z,26.8
2022-09-05T09:30:14.738Z,26.8
2022-09-05T09:31:07.244Z,26.9
2022-09-05T09:32:00.551Z,26.9
2022-09-05T09:33:01.730Z,26.5
2022-09-05T09:34:00.574Z,26.5
2022-09-05T09:35:00.808Z,26.7
2022-09-05T09:36:08.343Z,26.9
2022-09-05T09:37:00.992Z,27.1
2022-09-05T09:38:08.829Z,27.3
2022-09-05T09:39:06.543Z,27.4
2022-09-05T09:40:06.992Z,27.4
2022-09-05T09:41:03.433Z,27.5
2022-09-05T09:42:08.181Z,27.6
2022-09-05T09:43:07.176Z,27.3
2022-09-05T09:44:18.955Z,27.4
2022-09-05T09:45:22.629Z,27.7
2022-09-05T09:57:57.224Z,27.7
2022-09-05T09:59:45.372Z,27.7
2022-09-05T10:05:13.218Z,28.2
2022-09-05T10:05:44.243Z,28.4
2022-09-05T10:10:04.416Z,29.2
2022-09-05T10:10:04.465Z,29
2022-09-05T10:10:36.732Z,28.4
2022-09-05T10:10:37.469Z,28.4
2022-09-05T10:10:37.492Z,28.5
2022-09-05T10:11:16.295Z,28.2
2022-09-05T10:11:33.965Z,28.4
2022-09-05T10:12:10.417Z,29.1
2022-09-05T10:12:45.521Z,29.2
2022-09-05T10:13:45.374Z,29.3
2022-09-05T10:14:50.200Z,29
2022-09-05T10:15:47.574Z,29.4
2022-09-05T10:16:46.007Z,29.5
2022-09-05T10:17:51.672Z,29.6
2022-09-05T10:18:46.534Z,28.9
2022-09-05T10:20:12.387Z,28.9
2022-09-05T10:20:49.771Z,28.8
2022-09-05T10:21:46.516Z,28.5
2022-09-05T10:22:50.049Z,28.5
2022-09-05T10:23:46.378Z,28.8
2022-09-05T10:24:47.084Z,29.1
2022-09-05T10:25:46.557Z,29.5
2022-09-05T10:26:49.689Z,29.3
2022-09-05T10:27:46.577Z,29
2022-09-05T10:28:46.350Z,29
2022-09-05T10:29:46.682Z,29.1
2022-09-05T10:31:10.001Z,29.3
2022-09-05T10:32:31.369Z,29.2
2022-09-05T10:34:34.308Z,29.3
2022-09-05T10:35:12.098Z,29.5
2022-09-05T10:35:12.122Z,29.4
2022-09-05T10:35:48.276Z,29.7
2022-09-05T10:36:46.774Z,29.8
2022-09-05T10:37:46.862Z,29.5
2022-09-05T10:42:58.068Z,28
2022-09-05T10:42:59.743Z,28.1
2022-09-05T10:43:53.208Z,28.4
2022-09-05T10:44:50.201Z,28.8
2022-09-05T10:45:54.073Z,29.1
2022-09-05T10:46:53.698Z,29.6
2022-09-05T10:47:50.915Z,29.8
2022-09-05T10:48:53.552Z,29.7
2022-09-05T10:49:53.632Z,29.9
2022-09-05T10:50:48.343Z,29.9
2022-09-05T10:51:51.955Z,29.4
2022-09-05T10:52:47.496Z,29.6
2022-09-05T10:53:48.463Z,29.5
2022-09-05T10:54:47.491Z,28.9
2022-09-05T10:55:52.147Z,28.2
2022-09-05T10:56:51.139Z,28.2
2022-09-05T10:57:47.818Z,28
2022-09-05T10:59:33.145Z,28.1
2022-09-05T11:01:48.551Z,28.1
2022-09-05T11:02:19.570Z,28.4
2022-09-05T11:02:25.245Z,28.9
2022-09-05T11:02:55.551Z,29
2022-09-05T11:03:52.851Z,29.4
2022-09-05T11:04:50.483Z,29.9
2022-09-05T11:05:48.081Z,29.1
2022-09-05T11:06:50.338Z,28.5
2022-09-05T11:07:48.405Z,28.4
2022-09-05T11:08:50.987Z,29.1
2022-09-05T11:09:53.388Z,29.6
2022-09-05T11:10:48.087Z,29.8
2022-09-05T11:11:50.379Z,30
2022-09-05T11:12:50.479Z,30.4
2022-09-05T11:13:52.142Z,30.8
2022-09-05T11:14:54.115Z,30.7
2022-09-05T11:15:57.290Z,30.7
2022-09-05T11:16:50.045Z,30.7
2022-09-05T11:17:48.529Z,30.3
2022-09-05T11:18:55.768Z,30.1
2022-09-05T11:19:48.569Z,29.9
2022-09-05T11:20:48.665Z,30
2022-09-05T11:22:04.128Z,30
2022-09-05T11:25:50.254Z,30.1
2022-09-05T11:26:51.403Z,30.2
2022-09-05T11:27:49.751Z,29.8
2022-09-05T11:28:52.388Z,30
2022-09-05T11:29:49.213Z,30.3
2022-09-05T11:30:49.514Z,30.4
2022-09-05T11:32:07.130Z,30.3
2022-09-05T11:34:32.804Z,30.2
2022-09-05T11:35:20.361Z,30.2
2022-09-05T11:38:05.723Z,30.2
2022-09-05T11:38:44.002Z,30.3
2022-09-05T11:39:49.672Z,30.3
2022-09-05T11:40:00.738Z,30.2
2022-09-05T11:40:01.400Z,30.5
2022-09-05T11:41:01.313Z,30.7
2022-09-05T11:41:51.267Z,30.9
2022-09-05T11:42:49.883Z,30.8
2022-09-05T11:43:51.692Z,30.5
2022-09-05T11:44:50.061Z,30.4
2022-09-05T11:45:50.155Z,30.9
2022-09-05T11:46:50.417Z,31
2022-09-05T11:47:50.151Z,31
2022-09-05T11:48:53.107Z,31.2
2022-09-05T11:49:50.667Z,31.3
2022-09-05T11:50:50.499Z,31.7
2022-09-05T11:51:50.436Z,32.1
2022-09-05T11:52:51.115Z,31.3
2022-09-05T11:53:58.642Z,30.7
2022-09-05T11:54:50.948Z,30.9
2022-09-05T11:55:59.673Z,30.7
2022-09-05T11:57:04.868Z,30.7
2022-09-05T11:57:59.946Z,30.6
2022-09-05T11:58:59.889Z,30.7
2022-09-05T12:00:15.054Z,30.8
2022-09-05T12:01:35.011Z,30.7
2022-09-05T12:02:08.315Z,30.6
2022-09-05T12:03:00.750Z,30.6
2022-09-05T12:04:00.824Z,30.5
2022-09-05T12:05:48.017Z,30.6
2022-09-05T12:06:00.447Z,30.4
2022-09-05T12:07:00.638Z,30.5
2022-09-05T12:08:02.393Z,30.1
2022-09-05T12:09:03.166Z,30.2
2022-09-05T12:10:00.709Z,30.5
2022-09-05T12:11:01.490Z,30.7
2022-09-05T12:12:02.643Z,30.7
2022-09-05T12:13:01.822Z,30.6
2022-09-05T12:14:13.881Z,30.6
2022-09-05T12:15:00.953Z,30.5
2022-09-05T12:16:07.355Z,30.7
2022-09-05T12:17:01.279Z,30.9
2022-09-05T12:18:01.072Z,31
2022-09-05T12:19:02.881Z,31.2
2022-09-05T12:20:01.423Z,31.1
2022-09-05T12:21:01.236Z,30.8
2022-09-05T12:22:08.562Z,31
2022-09-05T12:23:01.426Z,30.7
2022-09-05T12:24:12.751Z,30.8
2022-09-05T12:25:16.728Z,30.7
2022-09-05T12:27:37.485Z,31.1
2022-09-05T12:27:43.397Z,30.8
2022-09-05T12:28:54.667Z,31.3
2022-09-05T12:30:28.811Z,31.3
2022-09-05T12:32:17.534Z,31
2022-09-05T12:33:30.265Z,31.7
2022-09-05T12:35:35.337Z,31.7
2022-09-05T12:36:09.325Z,31.7
2022-09-05T12:38:44.342Z,32
2022-09-05T12:39:59.563Z,31.6
2022-09-05T12:40:06.686Z,31.9
2022-09-05T12:40:44.947Z,31.1
2022-09-05T12:41:32.134Z,30.5
2022-09-05T12:42:40.244Z,30.9
2022-09-05T12:44:34.870Z,31.2
2022-09-05T12:44:40.901Z,31.3
2022-09-05T12:45:37.609Z,31.7
2022-09-05T12:46:38.267Z,32
2022-09-05T12:47:36.999Z,31.8
2022-09-05T12:48:38.418Z,31.6
2022-09-05T12:49:39.281Z,31.5
2022-09-05T12:50:36.216Z,31.4
2022-09-05T12:51:45.499Z,31.4
2022-09-05T12:52:35.953Z,31
2022-09-05T12:53:41.269Z,30.9
2022-09-05T12:54:37.332Z,30.6
2022-09-05T12:55:36.679Z,30.6
2022-09-05T12:57:12.542Z,30.8
2022-09-05T12:59:38.815Z,30.9
2022-09-05T13:02:59.908Z,31.2
2022-09-05T13:03:00.443Z,31.3
2022-09-05T13:03:00.546Z,31
2022-09-05T13:03:10.136Z,31.2
2022-09-05T13:27:34.118Z,32.2
2022-09-05T13:28:33.508Z,32.2
2022-09-05T13:29:38.566Z,32
2022-09-05T13:31:40.721Z,32.3
2022-09-05T13:34:29.452Z,32.3
2022-09-05T13:36:01.318Z,32
2022-09-05T13:37:57.013Z,31.8
2022-09-05T13:37:57.519Z,31.7
2022-09-05T13:38:09.275Z,31.9
2022-09-05T13:38:09.517Z,31.5
2022-09-05T13:38:09.786Z,31.6
2022-09-05T13:38:47.948Z,31.8
2022-09-05T13:39:36.190Z,31.7
2022-09-05T13:40:35.640Z,31.6
2022-09-05T13:41:35.425Z,31.7
2022-09-05T13:42:39.380Z,31.7
2022-09-05T13:43:34.878Z,31.8
2022-09-05T13:44:34.637Z,31.9
2022-09-05T13:45:35.785Z,31.8
2022-09-05T13:46:38.553Z,31.7
2022-09-05T13:47:34.808Z,31.8
2022-09-05T13:49:38.186Z,31.5
2022-09-05T13:50:34.898Z,30.8
2022-09-05T13:51:36.415Z,31.1
2022-09-05T13:52:39.946Z,31.4
2022-09-05T13:53:35.726Z,31.4
2022-09-05T13:54:35.085Z,31.3
2022-09-05T13:55:35.170Z,31.2
2022-09-05T13:56:38.711Z,31.4
2022-09-05T13:57:36.497Z,31.5
2022-09-05T13:58:36.452Z,31.6
2022-09-05T13:59:39.353Z,31.5
2022-09-05T14:00:35.514Z,31.5
2022-09-05T14:01:35.614Z,31.5
2022-09-05T14:03:37.538Z,31.5
2022-09-05T14:05:38.340Z,31.5
2022-09-05T14:06:46.860Z,31.5
2022-09-05T14:07:49.208Z,31.7
2022-09-05T14:08:36.208Z,31.6
2022-09-05T14:09:42.529Z,31.8
2022-09-05T14:15:59.860Z,31.8
2022-09-05T14:16:41.909Z,31
2022-09-05T14:17:52.400Z,30.9
2022-09-05T14:18:36.621Z,30.8
2022-09-05T14:19:36.601Z,30.8
2022-09-05T14:20:36.688Z,30.9
2022-09-05T14:21:36.949Z,30.8
2022-09-05T14:22:37.125Z,30.7
2022-09-05T14:23:36.880Z,30.7
2022-09-05T14:24:37.293Z,30.9
2022-09-05T14:25:37.636Z,30.9
2022-09-05T14:26:37.096Z,30.8
2022-09-05T14:27:37.172Z,31
2022-09-05T14:28:37.224Z,31.3
2022-09-05T14:29:37.733Z,31.4
2022-09-05T14:31:01.055Z,31.2
2022-09-05T14:33:45.354Z,30.9
2022-09-05T14:37:37.813Z,30.8
2022-09-05T14:37:38.070Z,30.4
2022-09-05T14:37:46.938Z,30.5
2022-09-05T14:37:47.838Z,30.6
2022-09-05T14:37:47.913Z,30.7
2022-09-05T14:37:57.748Z,30.4
2022-09-05T14:38:37.979Z,30.4
2022-09-05T14:39:38.142Z,30.4
2022-09-05T14:40:38.133Z,30.5
2022-09-05T14:41:39.851Z,30.6
2022-09-05T14:42:38.287Z,30.6
2022-09-05T14:43:38.453Z,30.7